createdAt,value
2018-06-12T00:00:09.669Z,94.90
2018-06-12T00:02:38.583Z,95.20
2018-06-12T00:05:07.565Z,95.20
2018-06-12T00:07:36.549Z,95.30
2018-06-12T00:10:05.708Z,95.30
2018-06-12T00:12:34.647Z,96.20
2018-06-12T00:15:03.893Z,95.80
2018-06-12T00:17:32.970Z,95.50
2018-06-12T00:20:02.076Z,95.70
2018-06-12T00:22:31.003Z,96.00
2018-06-12T00:24:59.978Z,96.10
2018-06-12T00:27:28.900Z,96.20
2018-06-12T00:29:57.953Z,96.40
2018-06-12T00:32:27.004Z,96.20
2018-06-12T00:34:56.046Z,96.30
2018-06-12T00:37:25.396Z,96.90
2018-06-12T00:39:54.341Z,96.40
2018-06-12T00:42:23.287Z,96.60
2018-06-12T00:44:52.457Z,96.70
2018-06-12T00:49:49.957Z,96.70
2018-06-12T00:52:19.087Z,97.20
2018-06-12T00:54:48.028Z,96.70
2018-06-12T00:57:16.969Z,96.00
2018-06-12T00:59:46.034Z,95.90
2018-06-12T01:02:15.013Z,96.20
2018-06-12T01:04:44.015Z,96.30
2018-06-12T01:07:13.084Z,96.60
2018-06-12T01:09:42.026Z,96.80
2018-06-12T01:12:10.980Z,96.60
2018-06-12T01:14:39.982Z,96.50
2018-06-12T01:17:08.966Z,97.00
2018-06-12T01:19:37.980Z,96.80
2018-06-12T01:22:06.955Z,97.10
2018-06-12T01:27:04.551Z,96.70
2018-06-12T01:29:33.529Z,96.70
2018-06-12T01:32:02.652Z,96.40
2018-06-12T01:34:31.686Z,96.50
2018-06-12T01:37:00.769Z,96.80
2018-06-12T01:39:29.829Z,97.20
2018-06-12T01:41:58.862Z,97.00
2018-06-12T01:44:27.821Z,96.70
2018-06-12T01:46:56.876Z,97.20
2018-06-12T01:49:25.861Z,97.40
2018-06-12T01:51:54.999Z,98.00
2018-06-12T01:54:24.060Z,98.10
2018-06-12T01:56:53.120Z,97.80
2018-06-12T01:59:22.418Z,98.00
2018-06-12T02:01:51.474Z,97.90
2018-06-12T02:04:20.400Z,98.00
2018-06-12T02:06:49.570Z,98.70
2018-06-12T02:09:18.544Z,99.40
2018-06-12T02:11:47.614Z,99.10
2018-06-12T02:14:16.600Z,98.60
2018-06-12T02:16:45.526Z,98.30
2018-06-12T02:19:15.037Z,99.00
2018-06-12T02:21:43.990Z,99.20
2018-06-12T02:24:13.069Z,99.10
2018-06-12T02:26:42.054Z,98.80
2018-06-12T02:29:11.058Z,98.50
2018-06-12T02:31:40.014Z,99.00
2018-06-12T02:34:09.002Z,99.10
2018-06-12T02:36:38.110Z,98.20
2018-06-12T02:39:07.424Z,99.10
2018-06-12T02:41:36.680Z,98.70
2018-06-12T02:44:05.672Z,98.90
2018-06-12T02:46:34.725Z,98.10
2018-06-12T02:49:04.015Z,98.40
2018-06-12T02:51:33.055Z,98.90
2018-06-12T02:54:01.970Z,99.10
2018-06-12T02:56:30.953Z,98.60
2018-06-12T02:58:59.981Z,98.40
2018-06-12T03:01:28.917Z,99.40
2018-06-12T03:03:57.951Z,98.90
2018-06-12T03:06:26.929Z,99.20
2018-06-12T03:11:24.441Z,99.90
2018-06-12T03:13:53.608Z,99.40
2018-06-12T03:16:22.519Z,99.90
2018-06-12T03:18:51.477Z,99.70
2018-06-12T03:21:20.616Z,99.50
2018-06-12T03:23:49.574Z,99.90
2018-06-12T03:26:18.598Z,99.80
2018-06-12T03:28:47.631Z,99.70
2018-06-12T03:31:16.599Z,99.60
2018-06-12T03:33:45.717Z,99.50
2018-06-12T03:36:14.628Z,99.40
2018-06-12T03:38:43.843Z,99.20
2018-06-12T03:41:12.808Z,98.90
2018-06-12T03:43:41.945Z,99.00
2018-06-12T03:46:10.839Z,99.50
2018-06-12T03:48:39.765Z,99.10
2018-06-12T03:51:08.929Z,99.50
2018-06-12T03:53:38.457Z,99.80
2018-06-12T03:56:07.660Z,99.60
2018-06-12T03:58:36.590Z,99.60
2018-06-12T04:01:05.632Z,99.40
2018-06-12T04:03:34.796Z,99.90
2018-06-12T04:06:03.895Z,99.40
2018-06-12T04:08:32.946Z,99.60
2018-06-12T04:11:02.014Z,99.50
2018-06-12T04:13:30.982Z,99.90
2018-06-12T04:16:00.057Z,99.70
2018-06-12T04:18:29.178Z,99.30
2018-06-12T04:20:58.280Z,99.20
2018-06-12T04:23:27.210Z,99.20
2018-06-12T04:25:56.207Z,99.50
2018-06-12T04:28:25.253Z,99.00
2018-06-12T04:30:54.248Z,99.30
2018-06-12T04:33:23.145Z,99.50
2018-06-12T04:35:52.193Z,99.50
2018-06-12T04:38:21.125Z,99.70
2018-06-12T04:40:50.067Z,99.70
2018-06-12T04:43:19.068Z,99.90
2018-06-12T04:45:48.109Z,99.60
2018-06-12T04:48:17.080Z,99.90
2018-06-12T04:50:46.068Z,99.50
2018-06-12T04:53:15.050Z,99.90
2018-06-12T04:55:43.986Z,99.90
2018-06-12T04:58:13.153Z,99.90
2018-06-12T05:03:10.785Z,99.70
2018-06-12T05:05:39.938Z,99.80
2018-06-12T05:08:08.873Z,99.70
2018-06-12T05:10:37.856Z,99.20
2018-06-12T05:13:06.922Z,99.60
2018-06-12T05:15:36.242Z,98.90
2018-06-12T05:18:05.374Z,99.90
2018-06-12T05:20:34.351Z,98.20
2018-06-12T05:23:03.314Z,98.60
2018-06-12T05:25:32.351Z,97.60
2018-06-12T05:30:29.733Z,97.90
2018-06-12T05:32:58.858Z,97.80
2018-06-12T05:35:27.961Z,98.00
2018-06-12T05:37:56.969Z,98.80
2018-06-12T05:40:25.958Z,98.60
2018-06-12T05:42:55.028Z,98.30
2018-06-12T05:45:23.962Z,98.20
2018-06-12T05:47:52.882Z,97.90
2018-06-12T05:50:21.902Z,97.20
2018-06-12T05:52:50.977Z,97.20
2018-06-12T05:55:20.099Z,96.80
2018-06-12T05:57:49.070Z,97.20
2018-06-12T06:00:18.244Z,97.30
2018-06-12T06:02:47.211Z,97.80
2018-06-12T06:05:16.147Z,98.40
2018-06-12T06:07:45.280Z,97.20
2018-06-12T06:10:14.170Z,97.20
2018-06-12T06:12:43.105Z,97.00
2018-06-12T06:15:12.093Z,96.90
2018-06-12T06:17:41.174Z,98.00
2018-06-12T06:22:38.742Z,97.80
2018-06-12T06:25:07.749Z,96.90
2018-06-12T06:27:36.874Z,97.20
2018-06-12T06:30:05.922Z,97.40
2018-06-12T06:32:35.065Z,97.40
2018-06-12T06:35:04.022Z,97.30
2018-06-12T06:37:33.102Z,97.70
2018-06-12T06:40:02.107Z,96.80
2018-06-12T06:44:59.682Z,96.30
2018-06-12T06:47:28.783Z,96.50
2018-06-12T06:49:57.857Z,96.80
2018-06-12T06:54:55.669Z,96.90
2018-06-12T06:57:24.772Z,96.70
2018-06-12T06:59:53.696Z,96.70
2018-06-12T07:02:23.890Z,96.40
2018-06-12T07:04:52.889Z,96.60
2018-06-12T07:07:22.113Z,97.00
2018-06-12T07:09:51.198Z,96.50
2018-06-12T07:12:20.089Z,97.40
2018-06-12T07:14:49.128Z,95.40
2018-06-12T07:17:18.927Z,95.50
2018-06-12T07:19:47.887Z,96.60
2018-06-12T07:22:16.798Z,95.40
2018-06-12T07:24:45.895Z,94.90
2018-06-12T07:29:43.530Z,95.20
2018-06-12T07:32:12.479Z,94.80
2018-06-12T07:34:41.408Z,94.80
2018-06-12T07:37:10.329Z,95.60
2018-06-12T07:39:39.258Z,94.40
2018-06-12T07:42:08.403Z,94.30
2018-06-12T07:44:37.339Z,95.40
2018-06-12T07:47:06.258Z,94.40
2018-06-12T07:49:35.297Z,93.70
2018-06-12T07:52:04.702Z,93.60
2018-06-12T07:57:02.196Z,93.80
2018-06-12T07:59:31.268Z,93.50
2018-06-12T08:02:00.270Z,92.70
2018-06-12T08:06:57.741Z,92.80
2018-06-12T08:09:26.675Z,92.70
2018-06-12T08:11:55.767Z,93.00
2018-06-12T08:14:24.699Z,92.70
2018-06-12T08:16:53.650Z,92.90
2018-06-12T08:19:22.567Z,92.50
2018-06-12T08:21:51.488Z,92.70
2018-06-12T08:24:20.479Z,91.70
2018-06-12T08:26:49.448Z,93.10
2018-06-12T08:29:18.411Z,91.60
2018-06-12T08:31:47.598Z,92.80
2018-06-12T08:34:16.542Z,91.20
2018-06-12T08:36:45.539Z,91.90
2018-06-12T08:41:43.017Z,90.10
2018-06-12T08:44:12.058Z,90.60
2018-06-12T08:46:41.030Z,91.30
2018-06-12T08:49:09.987Z,90.60
2018-06-12T08:51:38.965Z,90.30
2018-06-12T08:54:08.053Z,90.60
2018-06-12T08:56:37.003Z,91.00
2018-06-12T08:59:06.095Z,90.60
2018-06-12T09:01:35.056Z,90.50
2018-06-12T09:04:04.013Z,91.00
2018-06-12T09:06:33.070Z,90.50
2018-06-12T09:09:02.310Z,90.30
2018-06-12T09:11:32.193Z,90.10
2018-06-12T09:14:01.512Z,89.30
2018-06-12T09:16:30.610Z,90.00
2018-06-12T09:18:59.615Z,90.20
2018-06-12T09:21:28.533Z,90.60
2018-06-12T09:23:57.482Z,90.00
2018-06-12T09:26:26.575Z,90.70
2018-06-12T09:28:55.516Z,91.00
2018-06-12T09:31:24.763Z,88.90
2018-06-12T09:33:53.799Z,87.20
2018-06-12T09:36:22.796Z,89.40
2018-06-12T09:38:51.711Z,88.50
2018-06-12T09:41:20.630Z,88.20
2018-06-12T09:43:49.635Z,87.30
2018-06-12T09:46:18.574Z,89.60
2018-06-12T09:48:47.509Z,87.30
2018-06-12T09:51:16.521Z,89.80
2018-06-12T09:53:45.449Z,85.30
2018-06-12T09:56:14.457Z,88.20
2018-06-12T09:58:43.436Z,85.10
2018-06-12T10:01:12.383Z,86.80
2018-06-12T10:03:41.335Z,87.00
2018-06-12T10:06:10.269Z,84.80
2018-06-12T10:08:39.397Z,84.50
2018-06-12T10:11:08.333Z,84.30
2018-06-12T10:13:37.293Z,84.30
2018-06-12T10:16:06.348Z,84.50
2018-06-12T10:18:35.322Z,84.20
2018-06-12T10:21:04.363Z,82.70
2018-06-12T10:23:33.344Z,83.80
2018-06-12T10:26:02.354Z,83.70
2018-06-12T10:28:31.310Z,85.10
2018-06-12T10:33:28.727Z,85.70
2018-06-12T10:35:57.922Z,83.80
2018-06-12T10:38:26.909Z,83.40
2018-06-12T10:40:56.074Z,81.20
2018-06-12T10:43:24.984Z,86.70
2018-06-12T10:45:54.156Z,81.00
2018-06-12T10:48:23.102Z,81.60
2018-06-12T10:50:52.018Z,80.90
2018-06-12T10:53:20.981Z,83.60
2018-06-12T10:55:49.971Z,82.90
2018-06-12T10:58:18.917Z,84.20
2018-06-12T11:00:47.895Z,83.40
2018-06-12T11:03:16.790Z,82.90
2018-06-12T11:05:45.933Z,85.00
2018-06-12T11:08:14.992Z,83.30
2018-06-12T11:10:44.098Z,81.80
2018-06-12T11:13:13.044Z,80.00
2018-06-12T11:15:42.031Z,82.60
2018-06-12T11:18:11.009Z,81.70
2018-06-12T11:20:39.925Z,83.50
2018-06-12T11:23:08.845Z,81.40
2018-06-12T11:25:37.794Z,81.70
2018-06-12T11:28:06.806Z,83.50
2018-06-12T11:30:35.779Z,84.90
2018-06-12T11:33:04.831Z,82.60
2018-06-12T11:35:33.859Z,82.80
2018-06-12T11:38:02.820Z,81.40
2018-06-12T11:40:32.151Z,81.70
2018-06-12T11:43:01.267Z,80.50
2018-06-12T11:45:30.157Z,84.20
2018-06-12T11:50:27.569Z,82.80
2018-06-12T11:52:56.615Z,80.40
2018-06-12T11:55:25.537Z,81.40
2018-06-12T11:57:54.488Z,81.60
2018-06-12T12:00:23.530Z,80.30
2018-06-12T12:02:52.451Z,81.60
2018-06-12T12:05:21.381Z,84.40
2018-06-12T12:07:50.498Z,85.60
2018-06-12T12:10:19.551Z,89.70
2018-06-12T12:12:48.459Z,89.20
2018-06-12T12:15:17.378Z,90.00
2018-06-12T12:17:46.482Z,89.80
2018-06-12T12:20:15.399Z,87.90
2018-06-12T12:22:44.317Z,87.70
2018-06-12T12:25:13.286Z,88.90
2018-06-12T12:27:42.293Z,89.70
2018-06-12T12:32:39.887Z,90.00
2018-06-12T12:35:08.802Z,88.60
2018-06-12T12:37:37.892Z,89.30
2018-06-12T12:40:06.818Z,89.40
2018-06-12T12:42:35.727Z,90.70
2018-06-12T12:45:04.769Z,90.00
2018-06-12T12:47:33.794Z,87.80
2018-06-12T12:50:02.804Z,88.00
2018-06-12T12:52:38.412Z,88.80
2018-06-12T12:55:07.372Z,89.60
2018-06-12T12:57:36.442Z,89.80
2018-06-12T13:00:05.627Z,89.70
2018-06-12T13:02:34.616Z,89.10
2018-06-12T13:05:03.749Z,88.80
2018-06-12T13:07:32.730Z,90.30
2018-06-12T13:12:30.267Z,86.90
2018-06-12T13:14:59.229Z,88.60
2018-06-12T13:17:28.162Z,90.00
2018-06-12T13:19:57.194Z,85.60
2018-06-12T13:24:54.520Z,86.70
2018-06-12T13:27:23.606Z,86.40
2018-06-12T13:29:52.579Z,87.50
2018-06-12T13:32:21.503Z,88.70
2018-06-12T13:34:51.638Z,88.90
2018-06-12T13:37:20.677Z,87.50
2018-06-12T13:39:49.818Z,89.50
2018-06-12T13:42:18.774Z,88.30
2018-06-12T13:44:47.779Z,89.20
2018-06-12T13:47:16.906Z,88.50
2018-06-12T13:49:45.912Z,87.30
2018-06-12T13:52:14.995Z,86.80
2018-06-12T13:54:44.004Z,87.00
2018-06-12T13:57:12.984Z,86.20
2018-06-12T13:59:41.886Z,90.70
2018-06-12T14:02:10.798Z,87.80
2018-06-12T14:04:39.739Z,90.00
2018-06-12T14:07:08.791Z,87.10
2018-06-12T14:09:37.789Z,88.70
2018-06-12T14:12:06.795Z,90.70
2018-06-12T14:14:35.709Z,90.90
2018-06-12T14:17:04.784Z,91.00
2018-06-12T14:19:33.758Z,90.90
2018-06-12T14:22:02.795Z,90.00
2018-06-12T14:24:31.805Z,92.20
2018-06-12T14:27:00.832Z,92.50
2018-06-12T14:29:29.779Z,92.80
2018-06-12T14:31:58.745Z,94.00
2018-06-12T14:34:27.829Z,95.30
2018-06-12T14:36:57.229Z,97.30
2018-06-12T14:39:26.185Z,97.30
2018-06-12T14:41:55.151Z,98.10
2018-06-12T14:44:24.174Z,98.30
2018-06-12T14:46:53.199Z,98.20
2018-06-12T14:49:22.179Z,96.40
2018-06-12T14:51:51.204Z,96.90
2018-06-12T14:54:20.150Z,95.80
2018-06-12T14:56:49.361Z,94.60
2018-06-12T14:59:19.288Z,94.10
2018-06-12T15:01:48.342Z,94.90
2018-06-12T15:04:17.270Z,93.40
2018-06-12T15:06:46.249Z,91.90
2018-06-12T15:09:15.291Z,93.80
2018-06-12T15:11:44.385Z,93.40
2018-06-12T15:14:13.410Z,92.40
2018-06-12T15:16:42.542Z,90.80
2018-06-12T15:19:11.495Z,90.70
2018-06-12T15:21:40.732Z,92.30
2018-06-12T15:24:09.783Z,91.80
2018-06-12T15:26:38.884Z,90.50
2018-06-12T15:29:07.881Z,90.50
2018-06-12T15:31:37.002Z,91.10
2018-06-12T15:34:06.297Z,92.70
2018-06-12T15:36:35.376Z,91.10
2018-06-12T15:39:06.614Z,92.00
2018-06-12T15:41:36.113Z,90.20
2018-06-12T15:44:05.191Z,90.10
2018-06-12T15:46:34.181Z,91.60
2018-06-12T15:49:03.238Z,91.40
2018-06-12T15:51:32.256Z,90.20
2018-06-12T15:54:01.278Z,88.00
2018-06-12T15:56:30.225Z,89.50
2018-06-12T16:01:27.748Z,90.00
2018-06-12T16:03:56.776Z,90.70
2018-06-12T16:06:25.895Z,90.50
2018-06-12T16:08:55.007Z,91.40
2018-06-12T16:11:23.948Z,89.50
2018-06-12T16:13:52.963Z,89.50
2018-06-12T16:16:21.899Z,90.60
2018-06-12T16:21:20.565Z,87.30
2018-06-12T16:23:49.582Z,88.30
2018-06-12T16:26:18.534Z,85.90
2018-06-12T16:28:47.624Z,85.10
2018-06-12T16:31:16.558Z,85.10
2018-06-12T16:33:45.574Z,86.90
2018-06-12T16:36:14.567Z,88.00
2018-06-12T16:38:43.490Z,89.90
2018-06-12T16:41:12.575Z,87.80
2018-06-12T16:43:41.527Z,86.70
2018-06-12T16:46:10.517Z,87.50
2018-06-12T16:48:39.470Z,86.40
2018-06-12T16:51:08.416Z,85.50
2018-06-12T16:53:37.515Z,85.80
2018-06-12T16:56:06.476Z,87.70
2018-06-12T16:58:35.612Z,86.50
2018-06-12T17:01:04.817Z,85.90
2018-06-12T17:03:38.248Z,84.90
2018-06-12T17:06:08.925Z,86.90
2018-06-12T17:08:40.411Z,85.50
2018-06-12T17:11:11.513Z,86.00
2018-06-12T17:13:46.236Z,86.00
2018-06-12T17:16:17.388Z,87.90
2018-06-12T17:18:47.181Z,86.90
2018-06-12T17:23:48.854Z,87.50
2018-06-12T17:26:19.703Z,86.50
2018-06-12T17:28:51.803Z,88.30
2018-06-12T17:31:22.726Z,86.70
2018-06-12T17:33:53.412Z,87.10
2018-06-12T17:36:25.663Z,90.30
2018-06-12T17:38:55.860Z,88.90
2018-06-12T17:41:25.063Z,88.90
2018-06-12T17:43:54.313Z,87.60
2018-06-12T17:46:24.596Z,88.40
2018-06-12T17:48:54.063Z,88.00
2018-06-12T17:51:23.134Z,90.00
2018-06-12T17:53:52.187Z,89.50
2018-06-12T17:56:21.286Z,88.80
2018-06-12T17:58:51.107Z,90.40
2018-06-12T18:01:22.026Z,90.40
2018-06-12T18:03:51.259Z,90.20
2018-06-12T18:06:20.277Z,90.50
2018-06-12T18:08:49.557Z,90.60
2018-06-12T18:13:47.238Z,89.60
2018-06-12T18:16:16.264Z,88.80
2018-06-12T18:18:45.534Z,89.20
2018-06-12T18:21:14.636Z,90.30
2018-06-12T18:23:43.746Z,89.20
2018-06-12T18:28:41.106Z,90.70
2018-06-12T18:31:10.162Z,89.20
2018-06-12T18:33:39.302Z,88.50
2018-06-12T18:36:08.489Z,89.30
2018-06-12T18:38:37.474Z,89.40
2018-06-12T18:41:06.515Z,89.20
2018-06-12T18:43:35.588Z,90.10
2018-06-12T18:46:04.743Z,90.40
2018-06-12T18:48:33.770Z,90.20
2018-06-12T18:53:31.220Z,89.90
2018-06-12T18:58:28.725Z,90.70
2018-06-12T19:00:57.897Z,91.50
2018-06-12T19:03:26.916Z,90.30
2018-06-12T19:05:56.018Z,90.20
2018-06-12T19:08:24.993Z,90.30
2018-06-12T19:10:53.992Z,90.20
2018-06-12T19:13:23.241Z,91.20
2018-06-12T19:15:52.270Z,90.50
2018-06-12T19:18:21.426Z,90.70
2018-06-12T19:20:50.420Z,90.80
2018-06-12T19:23:19.469Z,91.10
2018-06-12T19:25:48.582Z,91.40
2018-06-12T19:28:17.651Z,91.70
2018-06-12T19:30:47.070Z,91.20
2018-06-12T19:33:16.037Z,91.60
2018-06-12T19:35:45.169Z,91.80
2018-06-12T19:38:14.063Z,92.10
2018-06-12T19:40:43.018Z,92.60
2018-06-12T19:43:11.981Z,92.40
2018-06-12T19:45:41.512Z,92.20
2018-06-12T19:48:10.614Z,92.40
2018-06-12T19:50:39.562Z,92.10
2018-06-12T19:53:08.622Z,92.70
2018-06-12T19:55:37.724Z,93.40
2018-06-12T19:58:06.662Z,92.90
2018-06-12T20:00:35.602Z,93.00
2018-06-12T20:03:04.827Z,93.20
2018-06-12T20:05:34.070Z,92.80
2018-06-12T20:08:03.050Z,93.40
2018-06-12T20:10:32.697Z,92.70
2018-06-12T20:13:01.760Z,93.50
2018-06-12T20:15:30.682Z,93.20
2018-06-12T20:17:59.690Z,93.70
2018-06-12T20:20:28.679Z,93.50
2018-06-12T20:22:57.808Z,93.50
2018-06-12T20:25:26.883Z,93.00
2018-06-12T20:27:55.906Z,92.50
2018-06-12T20:30:24.917Z,92.80
2018-06-12T20:32:53.901Z,92.30
2018-06-12T20:35:22.883Z,93.40
2018-06-12T20:37:51.973Z,93.10
2018-06-12T20:40:21.577Z,93.30
2018-06-12T20:42:51.043Z,92.60
2018-06-12T20:45:20.088Z,92.70
2018-06-12T20:47:49.026Z,92.80
2018-06-12T20:50:18.092Z,93.30
2018-06-12T20:52:47.110Z,92.80
2018-06-12T20:55:16.029Z,92.60
2018-06-12T20:57:45.196Z,92.40
2018-06-12T21:00:14.454Z,92.70
2018-06-12T21:02:43.676Z,92.70
2018-06-12T21:05:12.827Z,93.70
2018-06-12T21:07:42.039Z,92.50
2018-06-12T21:10:19.819Z,92.80
2018-06-12T21:12:51.809Z,93.20
2018-06-12T21:15:29.249Z,92.30
2018-06-12T21:18:04.924Z,93.30
2018-06-12T21:20:36.858Z,92.50
2018-06-12T21:23:09.761Z,93.60
2018-06-12T21:25:39.720Z,94.30
2018-06-12T21:28:10.883Z,93.30
2018-06-12T21:30:43.964Z,93.00
2018-06-12T21:35:46.906Z,93.10
2018-06-12T21:38:16.990Z,92.80
2018-06-12T21:40:58.159Z,93.40
2018-06-12T21:43:32.420Z,92.60
2018-06-12T21:46:07.289Z,93.40
2018-06-12T21:48:45.180Z,94.30
2018-06-12T21:51:16.290Z,93.40
2018-06-12T21:53:50.404Z,94.10
2018-06-12T21:56:23.236Z,93.60
2018-06-12T21:58:56.823Z,93.70
2018-06-12T22:01:29.403Z,93.60
2018-06-12T22:08:59.790Z,93.30
2018-06-12T22:11:29.136Z,93.80
2018-06-12T22:13:58.229Z,93.70
2018-06-12T22:16:27.186Z,93.60
2018-06-12T22:18:56.095Z,94.60
2018-06-12T22:21:25.090Z,94.40
2018-06-12T22:23:54.046Z,93.50
2018-06-12T22:26:23.146Z,94.00
2018-06-12T22:28:52.074Z,94.30
2018-06-12T22:31:21.021Z,94.40
2018-06-12T22:33:50.074Z,94.20
2018-06-12T22:36:19.065Z,94.50
2018-06-12T22:38:48.055Z,95.10
2018-06-12T22:41:17.184Z,95.20
2018-06-12T22:43:46.076Z,94.60
2018-06-12T22:46:15.058Z,94.70
2018-06-12T22:48:44.015Z,94.90
2018-06-12T22:51:13.053Z,94.90
2018-06-12T22:53:42.193Z,95.80
2018-06-12T22:56:11.118Z,95.50
2018-06-12T22:58:40.070Z,96.00
2018-06-12T23:01:08.974Z,95.40
2018-06-12T23:03:37.995Z,95.80
2018-06-12T23:06:06.924Z,95.80
2018-06-12T23:11:04.518Z,96.20
2018-06-12T23:13:33.437Z,96.60
2018-06-12T23:16:02.327Z,95.70
2018-06-12T23:18:32.283Z,96.10
2018-06-12T23:23:34.097Z,97.00
2018-06-12T23:26:03.009Z,96.20
2018-06-12T23:28:31.983Z,96.60
2018-06-12T23:31:01.020Z,97.10
2018-06-12T23:33:29.989Z,97.30
2018-06-12T23:35:58.909Z,96.50
2018-06-12T23:38:27.853Z,96.20
2018-06-12T23:40:56.855Z,96.10
2018-06-12T23:43:25.812Z,96.90
2018-06-12T23:45:54.878Z,97.20
2018-06-12T23:48:23.793Z,96.70
2018-06-12T23:50:52.698Z,96.70
2018-06-12T23:53:21.635Z,96.90
2018-06-12T23:55:50.561Z,96.50
2018-06-12T23:58:19.466Z,96.30
